sensor_id;sensor_type;location;lat;lon;timestamp;pressure;altitude;pressure_sealevel;temperature;humidity
49947;BME280;35839;48.662;13.300;2023-07-29T05:04:16;96951.75;;;38.61;30.19
49947;BME280;35839;48.662;13.300;2023-07-29T05:06:41;96958.91;;;38.53;29.55
49947;BME280;35839;48.662;13.300;2023-07-29T05:09:16;96967.81;;;38.74;30.06
49947;BME280;35839;48.662;13.300;2023-07-29T05:11:43;96955.25;;;38.73;29.65
49947;BME280;35839;48.662;13.300;2023-07-29T05:14:16;96963.69;;;39.90;28.50
49947;BME280;35839;48.662;13.300;2023-07-29T05:16:42;96956.81;;;39.39;29.17
49947;BME280;35839;48.662;13.300;2023-07-29T05:19:07;96960.63;;;39.63;28.90
49947;BME280;35839;48.662;13.300;2023-07-29T05:21:32;96958.25;;;39.21;29.24
49947;BME280;35839;48.662;13.300;2023-07-29T05:23:58;96962.72;;;39.70;28.94
49947;BME280;35839;48.662;13.300;2023-07-29T05:26:23;96949.34;;;39.24;29.79
49947;BME280;35839;48.662;13.300;2023-07-29T05:28:49;96958.66;;;39.92;28.79
49947;BME280;35839;48.662;13.300;2023-07-29T05:31:14;96950.00;;;40.21;28.20
49947;BME280;35839;48.662;13.300;2023-07-29T05:33:39;96957.94;;;40.11;28.79
49947;BME280;35839;48.662;13.300;2023-07-29T05:36:05;96951.84;;;40.17;27.87
49947;BME280;35839;48.662;13.300;2023-07-29T05:38:30;96946.03;;;39.59;29.09
49947;BME280;35839;48.662;13.300;2023-07-29T05:40:56;96948.97;;;40.26;28.63
49947;BME280;35839;48.662;13.300;2023-07-29T05:43:21;96945.25;;;40.70;27.51
49947;BME280;35839;48.662;13.300;2023-07-29T05:45:47;96948.84;;;40.22;28.74
49947;BME280;35839;48.662;13.300;2023-07-29T05:48:12;96940.31;;;40.59;28.43
49947;BME280;35839;48.662;13.300;2023-07-29T05:50:37;96936.72;;;41.49;27.34
49947;BME280;35839;48.662;13.300;2023-07-29T05:53:02;96939.19;;;41.54;27.47
49947;BME280;35839;48.662;13.300;2023-07-29T05:55:28;96937.25;;;41.55;27.16
49947;BME280;35839;48.662;13.300;2023-07-29T05:57:53;96930.88;;;42.16;26.93
49947;BME280;35839;48.662;13.300;2023-07-29T06:00:20;96931.47;;;41.83;27.17
49947;BME280;35839;48.662;13.300;2023-07-29T06:02:45;96940.88;;;41.20;27.50
49947;BME280;35839;48.662;13.300;2023-07-29T06:05:10;96934.13;;;41.56;27.07
49947;BME280;35839;48.662;13.300;2023-07-29T06:07:36;96933.75;;;40.80;28.38
49947;BME280;35839;48.662;13.300;2023-07-29T06:10:01;96933.00;;;41.18;27.97
49947;BME280;35839;48.662;13.300;2023-07-29T06:12:26;96925.97;;;41.60;27.15
49947;BME280;35839;48.662;13.300;2023-07-29T06:14:52;96926.72;;;41.57;26.90
49947;BME280;35839;48.662;13.300;2023-07-29T06:17:17;96934.16;;;41.79;27.12
49947;BME280;35839;48.662;13.300;2023-07-29T06:19:42;96932.75;;;41.89;26.53
49947;BME280;35839;48.662;13.300;2023-07-29T06:22:09;96927.25;;;41.46;27.93
49947;BME280;35839;48.662;13.300;2023-07-29T06:24:34;96923.22;;;41.01;27.82
49947;BME280;35839;48.662;13.300;2023-07-29T06:27:00;96918.22;;;40.52;28.93
49947;BME280;35839;48.662;13.300;2023-07-29T06:29:25;96922.09;;;42.07;26.46
49947;BME280;35839;48.662;13.300;2023-07-29T06:31:50;96928.25;;;42.00;25.97
49947;BME280;35839;48.662;13.300;2023-07-29T06:34:17;96933.94;;;42.11;26.70
49947;BME280;35839;48.662;13.300;2023-07-29T06:36:43;96944.16;;;41.68;26.86
49947;BME280;35839;48.662;13.300;2023-07-29T06:39:08;96940.63;;;41.28;27.20
49947;BME280;35839;48.662;13.300;2023-07-29T06:41:33;96944.00;;;41.80;26.28
49947;BME280;35839;48.662;13.300;2023-07-29T06:43:58;96944.03;;;41.61;27.08
49947;BME280;35839;48.662;13.300;2023-07-29T06:46:24;96932.53;;;41.98;26.72
49947;BME280;35839;48.662;13.300;2023-07-29T06:48:49;96928.00;;;41.43;27.26
49947;BME280;35839;48.662;13.300;2023-07-29T06:51:14;96914.19;;;42.05;26.63
49947;BME280;35839;48.662;13.300;2023-07-29T06:53:39;96921.28;;;42.56;26.09
49947;BME280;35839;48.662;13.300;2023-07-29T06:56:05;96934.03;;;40.94;27.69
49947;BME280;35839;48.662;13.300;2023-07-29T06:58:30;96925.34;;;41.70;27.04
49947;BME280;35839;48.662;13.300;2023-07-29T07:00:56;96932.50;;;41.75;26.49
49947;BME280;35839;48.662;13.300;2023-07-29T07:03:21;96930.81;;;42.62;25.73
49947;BME280;35839;48.662;13.300;2023-07-29T07:05:46;96930.31;;;42.30;26.34
49947;BME280;35839;48.662;13.300;2023-07-29T07:08:11;96930.59;;;42.74;25.68
49947;BME280;35839;48.662;13.300;2023-07-29T07:10:37;96931.25;;;42.64;26.13
49947;BME280;35839;48.662;13.300;2023-07-29T07:13:02;96928.25;;;43.37;24.93
49947;BME280;35839;48.662;13.300;2023-07-29T07:15:27;96930.44;;;42.90;26.03
49947;BME280;35839;48.662;13.300;2023-07-29T07:17:53;96924.63;;;42.19;26.61
49947;BME280;35839;48.662;13.300;2023-07-29T07:20:18;96929.75;;;42.44;26.22
49947;BME280;35839;48.662;13.300;2023-07-29T07:22:43;96921.72;;;42.35;26.01
49947;BME280;35839;48.662;13.300;2023-07-29T07:25:09;96920.94;;;42.35;26.25
49947;BME280;35839;48.662;13.300;2023-07-29T07:27:36;96913.31;;;43.08;25.43
49947;BME280;35839;48.662;13.300;2023-07-29T07:30:02;96915.22;;;43.68;25.11
49947;BME280;35839;48.662;13.300;2023-07-29T07:32:27;96914.31;;;42.62;26.07
49947;BME280;35839;48.662;13.300;2023-07-29T07:34:53;96915.69;;;43.40;24.87
49947;BME280;35839;48.662;13.300;2023-07-29T07:37:18;96915.97;;;43.27;25.14
49947;BME280;35839;48.662;13.300;2023-07-29T07:39:43;96919.38;;;43.54;24.75
49947;BME280;35839;48.662;13.300;2023-07-29T07:42:08;96916.56;;;43.13;25.43
49947;BME280;35839;48.662;13.300;2023-07-29T07:44:34;96918.88;;;43.11;24.85
49947;BME280;35839;48.662;13.300;2023-07-29T07:46:59;96917.81;;;42.89;25.43
49947;BME280;35839;48.662;13.300;2023-07-29T07:49:24;96920.19;;;43.55;24.46
49947;BME280;35839;48.662;13.300;2023-07-29T07:51:50;96917.41;;;43.18;24.99
49947;BME280;35839;48.662;13.300;2023-07-29T07:54:15;96917.97;;;43.68;24.93
49947;BME280;35839;48.662;13.300;2023-07-29T07:56:41;96912.94;;;42.26;25.86
49947;BME280;35839;48.662;13.300;2023-07-29T07:59:06;96912.03;;;43.28;25.64
49947;BME280;35839;48.662;13.300;2023-07-29T08:01:35;96905.06;;;44.24;24.31
49947;BME280;35839;48.662;13.300;2023-07-29T08:04:01;96904.00;;;43.16;23.80
49947;BME280;35839;48.662;13.300;2023-07-29T08:06:27;96913.97;;;44.03;23.86
49947;BME280;35839;48.662;13.300;2023-07-29T08:08:52;96924.28;;;44.13;23.81
49947;BME280;35839;48.662;13.300;2023-07-29T08:11:17;96909.69;;;43.68;24.22
49947;BME280;35839;48.662;13.300;2023-07-29T08:13:43;96900.00;;;42.80;24.06
49947;BME280;35839;48.662;13.300;2023-07-29T08:16:08;96891.91;;;43.62;23.60
49947;BME280;35839;48.662;13.300;2023-07-29T08:18:33;96894.84;;;44.28;23.91
49947;BME280;35839;48.662;13.300;2023-07-29T08:21:00;96894.84;;;44.31;24.59
49947;BME280;35839;48.662;13.300;2023-07-29T08:23:30;96901.19;;;44.32;24.17
49947;BME280;35839;48.662;13.300;2023-07-29T08:25:58;96902.16;;;44.61;22.62
49947;BME280;35839;48.662;13.300;2023-07-29T08:28:37;96896.72;;;44.75;23.09
49947;BME280;35839;48.662;13.300;2023-07-29T08:31:03;96900.72;;;44.82;22.36
49947;BME280;35839;48.662;13.300;2023-07-29T08:33:30;96899.22;;;44.98;23.10
49947;BME280;35839;48.662;13.300;2023-07-29T08:35:57;96900.28;;;46.07;21.79
49947;BME280;35839;48.662;13.300;2023-07-29T08:38:22;96906.78;;;43.20;23.87
49947;BME280;35839;48.662;13.300;2023-07-29T08:40:57;96915.34;;;43.82;23.93
49947;BME280;35839;48.662;13.300;2023-07-29T08:43:28;96940.47;;;45.50;22.70
49947;BME280;35839;48.662;13.300;2023-07-29T08:45:57;96956.03;;;43.21;24.19
49947;BME280;35839;48.662;13.300;2023-07-29T08:48:29;96959.94;;;43.88;23.28
49947;BME280;35839;48.662;13.300;2023-07-29T08:50:58;96962.78;;;42.97;24.43
49947;BME280;35839;48.662;13.300;2023-07-29T08:53:25;96971.22;;;43.75;23.44
49947;BME280;35839;48.662;13.300;2023-07-29T08:55:51;96952.06;;;43.52;23.79
49947;BME280;35839;48.662;13.300;2023-07-29T08:58:18;96937.63;;;43.63;24.15
49947;BME280;35839;48.662;13.300;2023-07-29T09:00:44;96950.38;;;44.74;23.26
49947;BME280;35839;48.662;13.300;2023-07-29T09:03:11;96958.38;;;43.90;24.98
49947;BME280;35839;48.662;13.300;2023-07-29T09:05:36;96968.53;;;41.69;26.87
49947;BME280;35839;48.662;13.300;2023-07-29T09:08:02;96965.66;;;40.88;28.09
49947;BME280;35839;48.662;13.300;2023-07-29T09:10:28;96963.16;;;39.84;29.72
49947;BME280;35839;48.662;13.300;2023-07-29T09:12:53;96960.59;;;42.07;26.81
49947;BME280;35839;48.662;13.300;2023-07-29T09:15:30;96973.50;;;40.07;29.37
49947;BME280;35839;48.662;13.300;2023-07-29T09:17:56;96978.91;;;40.03;29.51
49947;BME280;35839;48.662;13.300;2023-07-29T09:20:26;96963.88;;;42.16;27.22
49947;BME280;35839;48.662;13.300;2023-07-29T09:22:58;96954.44;;;41.32;27.56
49947;BME280;35839;48.662;13.300;2023-07-29T09:25:28;96956.31;;;39.22;30.39
49947;BME280;35839;48.662;13.300;2023-07-29T09:28:01;96939.28;;;40.16;30.31
49947;BME280;35839;48.662;13.300;2023-07-29T09:30:27;96937.28;;;40.64;28.70
49947;BME280;35839;48.662;13.300;2023-07-29T09:32:56;96948.53;;;38.95;30.72
49947;BME280;35839;48.662;13.300;2023-07-29T09:35:22;96947.75;;;39.79;29.67
49947;BME280;35839;48.662;13.300;2023-07-29T09:37:47;96963.00;;;39.36;30.04
49947;BME280;35839;48.662;13.300;2023-07-29T09:40:17;96972.25;;;39.88;29.29
49947;BME280;35839;48.662;13.300;2023-07-29T09:42:54;96974.94;;;40.32;28.95
49947;BME280;35839;48.662;13.300;2023-07-29T09:45:24;96984.41;;;41.02;28.80
49947;BME280;35839;48.662;13.300;2023-07-29T09:47:50;96988.22;;;40.97;28.33
49947;BME280;35839;48.662;13.300;2023-07-29T09:50:15;96983.47;;;42.61;26.50
49947;BME280;35839;48.662;13.300;2023-07-29T09:52:42;97000.44;;;39.60;30.90
49947;BME280;35839;48.662;13.300;2023-07-29T09:55:10;97003.28;;;41.03;28.39
49947;BME280;35839;48.662;13.300;2023-07-29T09:57:37;97010.78;;;41.06;28.43
49947;BME280;35839;48.662;13.300;2023-07-29T10:00:04;97003.78;;;41.09;28.48
49947;BME280;35839;48.662;13.300;2023-07-29T10:02:36;97000.22;;;38.02;32.49
49947;BME280;35839;48.662;13.300;2023-07-29T10:05:02;97000.72;;;41.69;28.25
49947;BME280;35839;48.662;13.300;2023-07-29T10:07:29;96995.22;;;39.15;30.77
49947;BME280;35839;48.662;13.300;2023-07-29T10:09:55;96995.19;;;41.88;27.89
49947;BME280;35839;48.662;13.300;2023-07-29T10:12:21;96977.94;;;38.86;30.98
49947;BME280;35839;48.662;13.300;2023-07-29T10:14:47;96975.09;;;41.06;28.84
49947;BME280;35839;48.662;13.300;2023-07-29T10:17:15;96959.41;;;42.81;26.73
49947;BME280;35839;48.662;13.300;2023-07-29T10:19:41;96960.06;;;38.40;32.91
49947;BME280;35839;48.662;13.300;2023-07-29T10:22:09;96954.75;;;37.31;34.33
49947;BME280;35839;48.662;13.300;2023-07-29T10:24:36;96940.09;;;38.76;31.93
49947;BME280;35839;48.662;13.300;2023-07-29T10:27:06;96940.69;;;36.78;34.80
49947;BME280;35839;48.662;13.300;2023-07-29T10:29:36;96937.94;;;39.22;32.10
49947;BME280;35839;48.662;13.300;2023-07-29T10:32:04;96931.88;;;38.76;32.62
49947;BME280;35839;48.662;13.300;2023-07-29T10:34:31;96927.34;;;38.68;32.42
49947;BME280;35839;48.662;13.300;2023-07-29T10:36:57;96926.22;;;38.07;32.69
49947;BME280;35839;48.662;13.300;2023-07-29T10:39:24;96930.06;;;38.80;31.72
49947;BME280;35839;48.662;13.300;2023-07-29T10:42:00;96926.63;;;38.95;29.96
49947;BME280;35839;48.662;13.300;2023-07-29T10:47:22;96914.34;;;41.70;27.53
49947;BME280;35839;48.662;13.300;2023-07-29T10:49:56;96914.19;;;41.20;27.26
49947;BME280;35839;48.662;13.300;2023-07-29T10:55:01;96899.94;;;43.77;25.68
49947;BME280;35839;48.662;13.300;2023-07-29T10:57:39;96898.72;;;43.34;27.06
49947;BME280;35839;48.662;13.300;2023-07-29T11:00:08;96887.97;;;41.88;27.69
49947;BME280;35839;48.662;13.300;2023-07-29T11:02:37;96891.66;;;39.45;28.80
49947;BME280;35839;48.662;13.300;2023-07-29T11:05:07;96884.03;;;41.43;28.12
49947;BME280;35839;48.662;13.300;2023-07-29T11:07:47;96887.38;;;41.14;26.87
49947;BME280;35839;48.662;13.300;2023-07-29T11:10:15;96868.56;;;42.54;26.96
49947;BME280;35839;48.662;13.300;2023-07-29T11:12:51;96863.66;;;42.97;25.20
49947;BME280;35839;48.662;13.300;2023-07-29T11:15:25;96871.66;;;42.49;27.17
49947;BME280;35839;48.662;13.300;2023-07-29T11:18:01;96869.75;;;43.54;25.33
49947;BME280;35839;48.662;13.300;2023-07-29T11:20:28;96863.31;;;40.88;26.79
49947;BME280;35839;48.662;13.300;2023-07-29T11:23:01;96858.41;;;41.82;25.95
49947;BME280;35839;48.662;13.300;2023-07-29T11:25:30;96861.34;;;45.03;23.69
49947;BME280;35839;48.662;13.300;2023-07-29T11:27:57;96861.88;;;45.37;22.20
49947;BME280;35839;48.662;13.300;2023-07-29T11:30:23;96866.22;;;43.54;23.47
49947;BME280;35839;48.662;13.300;2023-07-29T11:32:48;96858.50;;;43.67;24.02
49947;BME280;35839;48.662;13.300;2023-07-29T11:35:18;96858.97;;;44.97;23.73
49947;BME280;35839;48.662;13.300;2023-07-29T11:37:45;96861.44;;;45.31;23.49
49947;BME280;35839;48.662;13.300;2023-07-29T11:40:19;96874.47;;;41.80;24.96
49947;BME280;35839;48.662;13.300;2023-07-29T11:42:46;96889.56;;;43.64;24.60
49947;BME280;35839;48.662;13.300;2023-07-29T11:45:12;96887.66;;;43.68;24.91
49947;BME280;35839;48.662;13.300;2023-07-29T11:47:38;96890.69;;;43.22;24.63
49947;BME280;35839;48.662;13.300;2023-07-29T11:50:05;96884.13;;;42.16;26.50
49947;BME280;35839;48.662;13.300;2023-07-29T11:52:32;96898.03;;;44.33;24.36
49947;BME280;35839;48.662;13.300;2023-07-29T11:54:58;96885.84;;;43.86;24.74
49947;BME280;35839;48.662;13.300;2023-07-29T11:57:25;96882.59;;;43.77;24.54
49947;BME280;35839;48.662;13.300;2023-07-29T11:59:50;96884.41;;;43.21;24.36
49947;BME280;35839;48.662;13.300;2023-07-29T12:02:17;96883.50;;;43.92;23.90
49947;BME280;35839;48.662;13.300;2023-07-29T12:04:47;96884.66;;;43.87;23.59
49947;BME280;35839;48.662;13.300;2023-07-29T12:07:13;96882.03;;;42.59;25.35
49947;BME280;35839;48.662;13.300;2023-07-29T12:09:40;96856.31;;;42.78;25.01
49947;BME280;35839;48.662;13.300;2023-07-29T12:12:06;96859.81;;;44.35;23.33
49947;BME280;35839;48.662;13.300;2023-07-29T12:14:33;96866.47;;;44.27;23.83
49947;BME280;35839;48.662;13.300;2023-07-29T12:17:04;96896.72;;;41.94;26.52
49947;BME280;35839;48.662;13.300;2023-07-29T12:19:35;96919.47;;;38.66;31.32
49947;BME280;35839;48.662;13.300;2023-07-29T12:22:05;96914.59;;;40.67;29.99
49947;BME280;35839;48.662;13.300;2023-07-29T12:24:32;96904.06;;;42.09;27.98
49947;BME280;35839;48.662;13.300;2023-07-29T12:26:59;96903.81;;;42.45;27.23
49947;BME280;35839;48.662;13.300;2023-07-29T12:29:25;96904.00;;;41.21;28.90
49947;BME280;35839;48.662;13.300;2023-07-29T12:31:58;96906.03;;;40.18;30.72
49947;BME280;35839;48.662;13.300;2023-07-29T12:34:25;96912.75;;;40.36;29.77
49947;BME280;35839;48.662;13.300;2023-07-29T12:36:52;96899.66;;;40.81;29.17
49947;BME280;35839;48.662;13.300;2023-07-29T12:39:23;96905.28;;;40.88;28.55
49947;BME280;35839;48.662;13.300;2023-07-29T12:41:50;96904.28;;;41.35;28.66
49947;BME280;35839;48.662;13.300;2023-07-29T12:44:15;96921.97;;;42.00;27.92
49947;BME280;35839;48.662;13.300;2023-07-29T12:46:41;96927.31;;;41.93;27.85
49947;BME280;35839;48.662;13.300;2023-07-29T12:49:06;96913.72;;;42.26;27.41
49947;BME280;35839;48.662;13.300;2023-07-29T12:51:32;96913.22;;;42.97;26.85
49947;BME280;35839;48.662;13.300;2023-07-29T12:53:57;96900.72;;;43.41;26.42
49947;BME280;35839;48.662;13.300;2023-07-29T12:56:23;96871.22;;;43.07;27.09
49947;BME280;35839;48.662;13.300;2023-07-29T12:58:48;96857.88;;;43.43;26.89
49947;BME280;35839;48.662;13.300;2023-07-29T13:01:14;96845.66;;;43.10;27.75
49947;BME280;35839;48.662;13.300;2023-07-29T13:03:43;96838.28;;;43.55;27.71
49947;BME280;35839;48.662;13.300;2023-07-29T13:06:08;96831.06;;;43.40;28.08
49947;BME280;35839;48.662;13.300;2023-07-29T13:08:33;96826.88;;;43.20;27.90
49947;BME280;35839;48.662;13.300;2023-07-29T13:10:58;96824.38;;;43.41;27.09
49947;BME280;35839;48.662;13.300;2023-07-29T13:13:24;96828.56;;;44.13;26.83
49947;BME280;35839;48.662;13.300;2023-07-29T13:15:49;96820.97;;;43.59;27.43
49947;BME280;35839;48.662;13.300;2023-07-29T13:18:14;96810.22;;;44.50;25.91
49947;BME280;35839;48.662;13.300;2023-07-29T13:20:40;96816.25;;;44.70;26.18
49947;BME280;35839;48.662;13.300;2023-07-29T13:23:05;96820.78;;;44.37;26.43
49947;BME280;35839;48.662;13.300;2023-07-29T13:25:30;96817.75;;;44.53;27.10
49947;BME280;35839;48.662;13.300;2023-07-29T13:27:56;96809.69;;;44.26;26.80
49947;BME280;35839;48.662;13.300;2023-07-29T13:30:21;96804.50;;;44.14;27.04
49947;BME280;35839;48.662;13.300;2023-07-29T13:32:47;96817.03;;;44.77;25.52
49947;BME280;35839;48.662;13.300;2023-07-29T13:35:12;96816.66;;;44.06;26.64
49947;BME280;35839;48.662;13.300;2023-07-29T13:37:37;96816.31;;;44.84;25.52
49947;BME280;35839;48.662;13.300;2023-07-29T13:40:03;96814.88;;;44.38;26.08
49947;BME280;35839;48.662;13.300;2023-07-29T13:42:28;96823.19;;;43.83;26.59
49947;BME280;35839;48.662;13.300;2023-07-29T13:44:54;96816.34;;;44.88;26.81
49947;BME280;35839;48.662;13.300;2023-07-29T13:47:19;96810.94;;;46.06;25.82
49947;BME280;35839;48.662;13.300;2023-07-29T13:49:44;96811.72;;;45.85;24.87
49947;BME280;35839;48.662;13.300;2023-07-29T13:52:10;96820.28;;;46.73;24.27
49947;BME280;35839;48.662;13.300;2023-07-29T13:54:35;96816.47;;;45.67;24.19
49947;BME280;35839;48.662;13.300;2023-07-29T13:57:00;96821.19;;;45.30;25.56
49947;BME280;35839;48.662;13.300;2023-07-29T13:59:26;96832.22;;;45.34;24.35
49947;BME280;35839;48.662;13.300;2023-07-29T14:01:51;96832.28;;;45.66;25.44
49947;BME280;35839;48.662;13.300;2023-07-29T14:04:16;96820.44;;;45.76;22.79
49947;BME280;35839;48.662;13.300;2023-07-29T14:06:41;96832.94;;;45.02;24.24
49947;BME280;35839;48.662;13.300;2023-07-29T14:09:07;96824.34;;;45.57;26.21
49947;BME280;35839;48.662;13.300;2023-07-29T14:11:32;96814.91;;;45.80;24.30
49947;BME280;35839;48.662;13.300;2023-07-29T14:13:58;96812.94;;;45.62;24.01
49947;BME280;35839;48.662;13.300;2023-07-29T14:16:23;96816.78;;;45.15;24.44
49947;BME280;35839;48.662;13.300;2023-07-29T14:18:48;96810.13;;;45.27;22.91
49947;BME280;35839;48.662;13.300;2023-07-29T14:21:14;96800.66;;;45.46;24.46
49947;BME280;35839;48.662;13.300;2023-07-29T14:23:39;96794.75;;;46.04;23.42
49947;BME280;35839;48.662;13.300;2023-07-29T14:26:04;96789.59;;;46.14;23.66
49947;BME280;35839;48.662;13.300;2023-07-29T14:28:29;96789.63;;;45.63;24.81
49947;BME280;35839;48.662;13.300;2023-07-29T14:30:55;96803.44;;;46.14;22.99
49947;BME280;35839;48.662;13.300;2023-07-29T14:33:21;96810.16;;;46.05;22.94
49947;BME280;35839;48.662;13.300;2023-07-29T14:35:46;96809.34;;;46.23;22.02
49947;BME280;35839;48.662;13.300;2023-07-29T14:38:11;96809.78;;;45.75;24.30
49947;BME280;35839;48.662;13.300;2023-07-29T14:40:37;96808.13;;;46.31;23.38
49947;BME280;35839;48.662;13.300;2023-07-29T14:43:02;96807.78;;;46.08;22.84
49947;BME280;35839;48.662;13.300;2023-07-29T14:45:27;96809.25;;;46.52;22.21
49947;BME280;35839;48.662;13.300;2023-07-29T14:47:52;96808.19;;;45.49;23.36
49947;BME280;35839;48.662;13.300;2023-07-29T14:50:18;96818.84;;;45.39;23.81
49947;BME280;35839;48.662;13.300;2023-07-29T14:52:43;96813.00;;;44.46;23.99
49947;BME280;35839;48.662;13.300;2023-07-29T14:55:08;96806.34;;;44.65;23.92
49947;BME280;35839;48.662;13.300;2023-07-29T14:57:34;96811.66;;;45.13;23.51
49947;BME280;35839;48.662;13.300;2023-07-29T14:59:59;96813.28;;;45.21;23.22
49947;BME280;35839;48.662;13.300;2023-07-29T15:02:24;96810.91;;;43.73;24.97
49947;BME280;35839;48.662;13.300;2023-07-29T15:04:50;96803.28;;;42.51;25.08
49947;BME280;35839;48.662;13.300;2023-07-29T15:07:16;96791.34;;;43.07;24.77
49947;BME280;35839;48.662;13.300;2023-07-29T15:09:41;96807.69;;;45.07;23.99
49947;BME280;35839;48.662;13.300;2023-07-29T15:12:07;96805.34;;;42.31;25.76
49947;BME280;35839;48.662;13.300;2023-07-29T15:14:32;96804.34;;;43.92;24.25
49947;BME280;35839;48.662;13.300;2023-07-29T15:16:58;96797.09;;;43.29;25.43
49947;BME280;35839;48.662;13.300;2023-07-29T15:19:23;96791.63;;;44.39;24.59
49947;BME280;35839;48.662;13.300;2023-07-29T15:21:48;96788.63;;;44.73;24.18
49947;BME280;35839;48.662;13.300;2023-07-29T15:24:14;96787.22;;;46.12;23.07
49947;BME280;35839;48.662;13.300;2023-07-29T15:26:40;96798.91;;;46.70;22.46
49947;BME280;35839;48.662;13.300;2023-07-29T15:29:06;96784.34;;;46.52;25.31
49947;BME280;35839;48.662;13.300;2023-07-29T15:31:33;96776.09;;;46.26;22.76
49947;BME280;35839;48.662;13.300;2023-07-29T15:33:58;96776.97;;;46.05;22.79
49947;BME280;35839;48.662;13.300;2023-07-29T15:36:24;96779.94;;;42.11;25.70
49947;BME280;35839;48.662;13.300;2023-07-29T15:38:49;96771.44;;;45.80;22.74
49947;BME280;35839;48.662;13.300;2023-07-29T15:41:14;96779.22;;;44.05;24.64
49947;BME280;35839;48.662;13.300;2023-07-29T15:43:40;96775.81;;;42.88;25.22
49947;BME280;35839;48.662;13.300;2023-07-29T15:46:05;96775.41;;;43.65;24.55
49947;BME280;35839;48.662;13.300;2023-07-29T15:48:30;96770.09;;;44.77;24.07
49947;BME280;35839;48.662;13.300;2023-07-29T15:50:56;96772.56;;;45.00;23.44
49947;BME280;35839;48.662;13.300;2023-07-29T15:53:21;96776.44;;;44.01;24.50
49947;BME280;35839;48.662;13.300;2023-07-29T15:55:47;96775.38;;;44.20;24.37
49947;BME280;35839;48.662;13.300;2023-07-29T15:58:12;96774.13;;;43.55;25.39
49947;BME280;35839;48.662;13.300;2023-07-29T16:00:37;96759.59;;;45.73;22.90
49947;BME280;35839;48.662;13.300;2023-07-29T16:03:02;96756.44;;;45.56;23.70
49947;BME280;35839;48.662;13.300;2023-07-29T16:05:28;96757.22;;;45.78;23.42
49947;BME280;35839;48.662;13.300;2023-07-29T16:07:53;96770.16;;;44.88;23.27
49947;BME280;35839;48.662;13.300;2023-07-29T16:10:21;96776.59;;;42.55;25.86
49947;BME280;35839;48.662;13.300;2023-07-29T16:12:46;96774.44;;;43.46;25.33
49947;BME280;35839;48.662;13.300;2023-07-29T16:15:11;96792.00;;;43.72;25.05
49947;BME280;35839;48.662;13.300;2023-07-29T16:17:37;96794.38;;;44.32;24.16
49947;BME280;35839;48.662;13.300;2023-07-29T16:20:03;96784.69;;;43.97;24.43
49947;BME280;35839;48.662;13.300;2023-07-29T16:22:29;96791.81;;;44.02;24.47
49947;BME280;35839;48.662;13.300;2023-07-29T16:24:54;96792.47;;;43.40;25.06
49947;BME280;35839;48.662;13.300;2023-07-29T16:27:20;96797.94;;;44.36;24.05
49947;BME280;35839;48.662;13.300;2023-07-29T16:29:46;96799.94;;;42.68;26.43
49947;BME280;35839;48.662;13.300;2023-07-29T16:32:11;96800.47;;;43.52;25.88
49947;BME280;35839;48.662;13.300;2023-07-29T16:34:38;96802.38;;;43.96;25.07
49947;BME280;35839;48.662;13.300;2023-07-29T16:37:05;96797.56;;;43.83;24.59
49947;BME280;35839;48.662;13.300;2023-07-29T16:39:31;96796.41;;;44.43;23.11
49947;BME280;35839;48.662;13.300;2023-07-29T16:41:56;96797.91;;;43.74;23.65
49947;BME280;35839;48.662;13.300;2023-07-29T16:44:22;96805.66;;;42.83;24.37
49947;BME280;35839;48.662;13.300;2023-07-29T16:46:47;96803.97;;;43.46;23.40
49947;BME280;35839;48.662;13.300;2023-07-29T16:49:12;96809.00;;;43.81;23.10
49947;BME280;35839;48.662;13.300;2023-07-29T16:51:37;96803.94;;;44.46;22.48
49947;BME280;35839;48.662;13.300;2023-07-29T16:54:03;96800.78;;;44.51;22.84
49947;BME280;35839;48.662;13.300;2023-07-29T16:56:28;96808.25;;;44.47;24.08
49947;BME280;35839;48.662;13.300;2023-07-29T16:58:53;96800.25;;;41.80;26.32
49947;BME280;35839;48.662;13.300;2023-07-29T17:01:19;96809.50;;;41.68;26.48
49947;BME280;35839;48.662;13.300;2023-07-29T17:03:44;96818.56;;;42.22;26.43
49947;BME280;35839;48.662;13.300;2023-07-29T17:06:10;96816.38;;;43.70;26.33
49947;BME280;35839;48.662;13.300;2023-07-29T17:08:35;96812.44;;;43.71;24.24
49947;BME280;35839;48.662;13.300;2023-07-29T17:11:01;96812.56;;;43.85;25.02
49947;BME280;35839;48.662;13.300;2023-07-29T17:13:26;96819.13;;;43.29;24.26
49947;BME280;35839;48.662;13.300;2023-07-29T17:15:52;96816.91;;;43.45;25.51
49947;BME280;35839;48.662;13.300;2023-07-29T17:18:17;96816.22;;;41.71;26.58
49947;BME280;35839;48.662;13.300;2023-07-29T17:20:42;96814.59;;;43.47;25.20
49947;BME280;35839;48.662;13.300;2023-07-29T17:23:08;96830.91;;;43.26;25.40
49947;BME280;35839;48.662;13.300;2023-07-29T17:25:33;96831.84;;;40.65;28.43
49947;BME280;35839;48.662;13.300;2023-07-29T17:27:58;96835.47;;;39.99;29.28
49947;BME280;35839;48.662;13.300;2023-07-29T17:30:24;96835.88;;;40.88;28.34
49947;BME280;35839;48.662;13.300;2023-07-29T17:32:53;96833.53;;;41.52;27.40
49947;BME280;35839;48.662;13.300;2023-07-29T17:35:19;96836.31;;;40.90;27.39
49947;BME280;35839;48.662;13.300;2023-07-29T17:37:44;96841.88;;;40.74;28.18
49947;BME280;35839;48.662;13.300;2023-07-29T17:40:10;96846.44;;;39.83;29.53
49947;BME280;35839;48.662;13.300;2023-07-29T17:42:36;96847.00;;;39.01;30.81
49947;BME280;35839;48.662;13.300;2023-07-29T17:45:02;96854.25;;;39.09;31.01
49947;BME280;35839;48.662;13.300;2023-07-29T17:47:27;96856.97;;;38.81;31.01
49947;BME280;35839;48.662;13.300;2023-07-29T17:49:52;96853.25;;;36.54;35.43
49947;BME280;35839;48.662;13.300;2023-07-29T17:52:18;96846.72;;;39.94;30.31
49947;BME280;35839;48.662;13.300;2023-07-29T17:54:43;96846.06;;;39.53;30.71